Main page
METAR-TAF:

METAR-TAF

Airports :

Flugplatz Grafenwöhr

Grafenwöhr, Germany

latitude: 49-42N, longitude: 011-57E, elevation: 415 m

Current weather observation

The report was made 1 hour and 8 minutes ago, at 00:55 UTC
Calm wind
Temperature 12°C
Humidity 88%
Pressure 1017 hPa
Visibility 10 km or more
Clear sky

METAR: ETIC 250055Z AUTO 00000KT 9999 CLR 12/10 A3003 RMK AO2 SLP169 T01190096 $

Time: 04:03 (02:03 UTC)

Forecast

The report was made 8 hours and 3 minutes ago, at 18:00 UTC
Forecast valid from 24 at 18 UTC to 25 at 24 UTC
Wind 6 kt from variable directions
Visibility 10 km or more
Scattered clouds at a height of 6000 ft
Temporary
from 25 at 03 UTC to 25 at 05 UTC
Visibility: 2505 m
Broken clouds at a height of 4000 ft
mist,

TAF: ETIC 241800Z 2418/2524 VRB06KT 9999 SCT060 QNH2999INS TEMPO 2503/2505 8000 BR BKN040 TX25/2515Z TN14/2503Z LAST NO AMDS AFT 2421 NEXT 2505

Weather observations and forecasts of more than 4000 airports (METAR and TAF reports).

The available stations are represented by yellow and red dots on the map.

Hover mouse over dot to see the name of the station.

Then click to see weather observations and forecasts.

To change the map : click on the green buttons with a black cross to zoom in, on the green button with a dash to zoom out, or on the green arrows for adjacent maps.


METAR-TAF: